| time (UTC) | temp C | wind direction | speed KPH | gust KPH | rain 1hr cm | rain 24hr cm | rain mn cm | humidity % | barometer mb |
| 20260510071614 | 8 | 223 | 0.0 | 3.2 | 0.00 | 0.30 | 0.30 | 94 | 1007.8 |
| 20260510071113 | 8 | 278 | 1.6 | 3.2 | 0.00 | 0.30 | 0.30 | 94 | 1007.8 |
| 20260510070609 | 9 | 147 | 0.0 | 1.6 | 0.00 | 0.30 | 0.30 | 94 | 1008.0 |
| 20260510070107 | 9 | 248 | 3.2 | 3.2 | 0.00 | 0.30 | 0.30 | 94 | 1008.0 |
| 20260510065603 | 9 | 317 | 1.6 | 3.2 | 0.05 | 0.30 | 0.30 | 94 | 1008.2 |
| 20260510065058 | 9 | 147 | 1.6 | 4.8 | 0.05 | 0.30 | 0.30 | 94 | 1008.1 |
| 20260510064555 | 9 | 45 | 0.0 | 3.2 | 0.00 | 0.28 | 0.28 | 94 | 1008.3 |
| 20260510064051 | 9 | 26 | 1.6 | 4.8 | 0.00 | 0.28 | 0.28 | 94 | 1008.2 |
| 20260510063549 | 10 | 111 | 1.6 | 3.2 | 0.00 | 0.28 | 0.28 | 94 | 1008.1 |
| 20260510063046 | 10 | 43 | 0.0 | 4.8 | 0.00 | 0.28 | 0.28 | 94 | 1008.0 |
| 20260510062541 | 10 | 65 | 0.0 | 4.8 | 0.00 | 0.28 | 0.28 | 94 | 1007.7 |
| 20260510062037 | 10 | 305 | 0.0 | 3.2 | 0.00 | 0.28 | 0.28 | 94 | 1008.2 |
| 20260510061533 | 10 | 68 | 1.6 | 4.8 | 0.00 | 0.28 | 0.28 | 94 | 1007.9 |
| 20260510061030 | 10 | 86 | 0.0 | 3.2 | 0.00 | 0.28 | 0.28 | 94 | 1008.2 |
| 20260510060527 | 10 | 95 | 0.0 | 1.6 | 0.00 | 0.28 | 0.28 | 94 | 1008.3 |
| 20260510060023 | 10 | 158 | 1.6 | 4.8 | 0.00 | 0.28 | 0.28 | 94 | 1008.2 |
| 20260510055519 | 10 | 145 | 0.0 | 4.8 | 0.00 | 0.28 | 0.28 | 94 | 1008.1 |
| 20260510055017 | 10 | 139 | 3.2 | 3.2 | 0.00 | 0.28 | 0.28 | 94 | 1008.1 |
| 20260510054513 | 10 | 143 | 3.2 | 4.8 | 0.00 | 0.28 | 0.28 | 93 | 1008.5 |
| 20260510054008 | 10 | 176 | 0.0 | 4.8 | 0.00 | 0.28 | 0.28 | 93 | 1008.3 |
| 20260510053502 | 10 | 120 | 1.6 | 3.2 | 0.00 | 0.28 | 0.28 | 93 | 1008.3 |
| 20260510053000 | 10 | 161 | 1.6 | 3.2 | 0.00 | 0.28 | 0.28 | 93 | 1008.3 |
| 20260510052456 | 10 | 157 | 1.6 | 4.8 | 0.00 | 0.28 | 0.28 | 93 | 1008.2 |
| 20260510051952 | 10 | 149 | 3.2 | 4.8 | 0.00 | 0.28 | 0.28 | 93 | 1008.2 |
| 20260510051448 | 10 | 127 | 1.6 | 4.8 | 0.30 | 0.28 | 0.28 | 92 | 1008.5 |
| 20260510050944 | 10 | 249 | 3.2 | 4.8 | 0.71 | 0.28 | 0.28 | 92 | 1008.6 |
| 20260510050442 | 10 | 121 | 6.4 | 9.7 | 0.61 | 0.23 | 0.23 | 92 | 1008.8 |
| 20260510045939 | 11 | 183 | 3.2 | 4.8 | 0.30 | 0.18 | 0.18 | 91 | 1009.4 |
| 20260510045436 | 11 | 119 | 1.6 | 3.2 | 0.18 | 0.13 | 0.13 | 91 | 1009.4 |
| 20260510044932 | 11 | 108 | 3.2 | 6.4 | 0.18 | 0.13 | 0.13 | 91 | 1009.2 |
| 20260510044429 | 11 | 107 | 1.6 | 3.2 | 0.13 | 0.10 | 0.10 | 90 | 1009.2 |
| 20260510043926 | 11 | 107 | 3.2 | 4.8 | 0.05 | 0.10 | 0.10 | 89 | 1009.0 |
| 20260510043422 | 11 | 112 | 1.6 | 3.2 | 0.05 | 0.08 | 0.08 | 89 | 1009.2 |
| 20260510042920 | 11 | 38 | 0.0 | 3.2 | 0.18 | 0.08 | 0.08 | 88 | 1009.2 |
| 20260510042416 | 11 | 166 | 3.2 | 3.2 | 0.23 | 0.08 | 0.08 | 87 | 1009.2 |
| 20260510041912 | 12 | 283 | 3.2 | 4.8 | 0.23 | 0.05 | 0.05 | 86 | 1009.2 |
| 20260510041409 | 12 | 170 | 3.2 | 6.4 | 0.13 | 0.03 | 0.03 | 85 | 1009.1 |
| 20260510040907 | 12 | 333 | 6.4 | 8.0 | 0.05 | 0.00 | 0.00 | 85 | 1009.1 |
| 20260510040403 | 12 | 302 | 1.6 | 8.0 | 0.00 | 0.00 | 0.00 | 84 | 1009.0 |
| 20260510035859 | 12 | 192 | 1.6 | 11.3 | 0.00 | 0.36 | 0.36 | 84 | 1008.7 |
| 20260510035355 | 12 | 286 | 9.7 | 17.7 | 0.00 | 0.36 | 0.36 | 83 | 1008.8 |
| 20260510034850 | 12 | 309 | 6.4 | 14.5 | 0.00 | 0.36 | 0.36 | 83 | 1008.8 |
| 20260510034349 | 12 | 168 | 1.6 | 16.1 | 0.00 | 0.36 | 0.36 | 84 | 1008.5 |
| 20260510033845 | 12 | 329 | 1.6 | 9.7 | 0.00 | 0.36 | 0.36 | 87 | 1008.3 |
| 20260510033341 | 11 | 111 | 4.8 | 8.0 | 0.00 | 0.36 | 0.36 | 88 | 1008.1 |
| 20260510032838 | 11 | 264 | 3.2 | 8.0 | 0.00 | 0.36 | 0.36 | 88 | 1007.8 |
| 20260510032335 | 11 | 280 | 3.2 | 11.3 | 0.00 | 0.36 | 0.36 | 89 | 1007.7 |
| 20260510031825 | 11 | 179 | 4.8 | 9.7 | 0.00 | 0.36 | 0.36 | 90 | 1007.4 |
| 20260510031320 | 11 | 22 | 1.6 | 3.2 | 0.00 | 0.36 | 0.36 | 90 | 1007.4 |
| 20260510030815 | 11 | 88 | 4.8 | 6.4 | 0.00 | 0.36 | 0.36 | 91 | 1007.6 |
| 20260510030312 | 11 | 112 | 3.2 | 4.8 | 0.00 | 0.36 | 0.36 | 91 | 1007.5 |
| 20260510025810 | 10 | 254 | 0.0 | 6.4 | 0.00 | 0.36 | 0.36 | 91 | 1007.3 |
| 20260510025307 | 10 | 139 | 3.2 | 4.8 | 0.00 | 0.36 | 0.36 | 91 | 1007.5 |
| 20260510024803 | 10 | 134 | 1.6 | 6.4 | 0.00 | 0.36 | 0.36 | 91 | 1007.5 |
| 20260510024301 | 10 | 95 | 1.6 | 4.8 | 0.00 | 0.36 | 0.36 | 91 | 1007.5 |
| 20260510023756 | 10 | 191 | 1.6 | 4.8 | 0.00 | 0.36 | 0.36 | 92 | 1007.7 |
| 20260510023253 | 10 | 134 | 4.8 | 11.3 | 0.00 | 0.36 | 0.36 | 92 | 1007.5 |
| 20260510022750 | 10 | 163 | 1.6 | 4.8 | 0.00 | 0.36 | 0.36 | 91 | 1007.4 |
| 20260510022249 | 10 | 186 | 1.6 | 3.2 | 0.00 | 0.36 | 0.36 | 92 | 1007.5 |
| 20260510021748 | 10 | 123 | 1.6 | 4.8 | 0.00 | 0.36 | 0.36 | 91 | 1007.1 |
| 20260510021247 | 10 | 173 | 3.2 | 4.8 | 0.00 | 0.36 | 0.36 | 91 | 1007.1 |
| 20260510020742 | 10 | 241 | 0.0 | 6.4 | 0.00 | 0.36 | 0.36 | 91 | 1007.2 |
| 20260510020242 | 10 | 174 | 1.6 | 4.8 | 0.00 | 0.36 | 0.36 | 91 | 1007.2 |
| 20260510015739 | 10 | 186 | 4.8 | 6.4 | 0.00 | 0.36 | 0.36 | 92 | 1007.1 |
| 20260510015235 | 10 | 170 | 4.8 | 8.0 | 0.00 | 0.36 | 0.36 | 92 | 1007.5 |
| 20260510014730 | 10 | 157 | 1.6 | 8.0 | 0.00 | 0.36 | 0.36 | 92 | 1007.2 |
| 20260510014228 | 10 | 160 | 4.8 | 6.4 | 0.00 | 0.36 | 0.36 | 91 | 1007.3 |
| 20260510013723 | 10 | 120 | 1.6 | 4.8 | 0.00 | 0.36 | 0.36 | 91 | 1007.3 |
| 20260510013219 | 10 | 184 | 3.2 | 3.2 | 0.00 | 0.36 | 0.36 | 91 | 1007.3 |
| 20260510012719 | 10 | 127 | 3.2 | 3.2 | 0.00 | 0.36 | 0.36 | 91 | 1007.3 |
| 20260510012214 | 10 | 152 | 0.0 | 4.8 | 0.00 | 0.36 | 0.36 | 91 | 1007.2 |
| 20260510011709 | 10 | 222 | 1.6 | 4.8 | 0.00 | 0.36 | 0.36 | 90 | 1007.0 |
| 20260510011205 | 10 | 200 | 1.6 | 4.8 | 0.00 | 0.36 | 0.36 | 90 | 1007.1 |
| 20260510010701 | 10 | 169 | 1.6 | 4.8 | 0.00 | 0.36 | 0.36 | 90 | 1007.0 |
| 20260510010158 | 10 | 159 | 0.0 | 3.2 | 0.00 | 0.36 | 0.36 | 90 | 1007.2 |
| 20260510005655 | 10 | 192 | 0.0 | 3.2 | 0.00 | 0.36 | 0.36 | 89 | 1007.2 |
| 20260510005151 | 10 | 173 | 3.2 | 3.2 | 0.00 | 0.36 | 0.36 | 89 | 1007.0 |
| 20260510004650 | 10 | 180 | 0.0 | 4.8 | 0.00 | 0.36 | 0.36 | 89 | 1007.0 |
| 20260510004147 | 10 | 127 | 0.0 | 4.8 | 0.00 | 0.36 | 0.36 | 89 | 1006.9 |
| 20260510003645 | 11 | 160 | 0.0 | 8.0 | 0.00 | 0.36 | 0.36 | 88 | 1006.8 |
| 20260510003140 | 11 | 184 | 3.2 | 6.4 | 0.00 | 0.36 | 0.36 | 88 | 1006.8 |
| 20260510002635 | 11 | 183 | 3.2 | 4.8 | 0.00 | 0.36 | 0.36 | 88 | 1006.9 |
| 20260510002132 | 11 | 166 | 1.6 | 4.8 | 0.00 | 0.36 | 0.36 | 87 | 1007.0 |
| 20260510001629 | 11 | 175 | 4.8 | 4.8 | 0.00 | 0.36 | 0.36 | 87 | 1006.9 |
| 20260510001128 | 11 | 167 | 1.6 | 4.8 | 0.00 | 0.36 | 0.36 | 87 | 1007.0 |
| 20260510000627 | 11 | 183 | 3.2 | 4.8 | 0.00 | 0.36 | 0.36 | 87 | 1006.8 |
| 20260510000125 | 11 | 202 | 0.0 | 4.8 | 0.00 | 0.36 | 0.36 | 87 | 1006.4 |
| 20260509235621 | 11 | 160 | 0.0 | 4.8 | 0.00 | 0.36 | 0.36 | 86 | 1006.3 |
| 20260509235118 | 12 | 118 | 1.6 | 3.2 | 0.00 | 0.36 | 0.36 | 85 | 1006.6 |
| 20260509234614 | 12 | 130 | 4.8 | 9.7 | 0.00 | 0.36 | 0.36 | 84 | 1006.5 |
| 20260509234112 | 12 | 139 | 1.6 | 3.2 | 0.00 | 0.36 | 0.36 | 83 | 1006.6 |
| 20260509233610 | 12 | 156 | 3.2 | 6.4 | 0.00 | 0.36 | 0.36 | 83 | 1006.9 |
| 20260509233107 | 12 | 300 | 0.0 | 6.4 | 0.00 | 0.36 | 0.36 | 82 | 1006.7 |
| 20260509232603 | 13 | 99 | 1.6 | 4.8 | 0.00 | 0.36 | 0.36 | 82 | 1006.6 |
| 20260509232100 | 13 | 102 | 3.2 | 11.3 | 0.00 | 0.36 | 0.36 | 81 | 1006.8 |
| 20260509231556 | 13 | 110 | 3.2 | 4.8 | 0.00 | 0.36 | 0.36 | 80 | 1006.8 |
| 20260509231054 | 13 | 136 | 4.8 | 11.3 | 0.00 | 0.36 | 0.36 | 78 | 1006.6 |
| 20260509230550 | 13 | 128 | 3.2 | 11.3 | 0.00 | 0.36 | 0.36 | 77 | 1006.5 |
| 20260509230048 | 14 | 136 | 6.4 | 12.9 | 0.00 | 0.36 | 0.36 | 76 | 1006.8 |
| 20260509225543 | 13 | 174 | 3.2 | 8.0 | 0.00 | 0.36 | 0.36 | 78 | 1006.7 |
| 20260509225039 | 13 | 183 | 4.8 | 8.0 | 0.00 | 0.36 | 0.36 | 77 | 1006.7 |
| 20260509224534 | 13 | 164 | 8.0 | 14.5 | 0.00 | 0.36 | 0.36 | 76 | 1006.8 |
| 20260509224031 | 14 | 156 | 3.2 | 8.0 | 0.00 | 0.36 | 0.36 | 78 | 1006.4 |
| 20260509223529 | 13 | 159 | 1.6 | 4.8 | 0.00 | 0.36 | 0.36 | 78 | 1006.6 |
| 20260509223026 | 13 | 196 | 1.6 | 8.0 | 0.00 | 0.36 | 0.36 | 77 | 1006.7 |
| 20260509222522 | 13 | 196 | 1.6 | 4.8 | 0.00 | 0.36 | 0.36 | 79 | 1006.7 |
| 20260509222018 | 13 | 158 | 0.0 | 6.4 | 0.00 | 0.36 | 0.36 | 78 | 1006.7 |
| 20260509221514 | 13 | 176 | 6.4 | 12.9 | 0.00 | 0.36 | 0.36 | 77 | 1006.6 |
| 20260509221010 | 13 | 164 | 1.6 | 4.8 | 0.00 | 0.36 | 0.36 | 79 | 1006.5 |
| 20260509220506 | 13 | 130 | 0.0 | 3.2 | 0.00 | 0.36 | 0.36 | 80 | 1006.7 |
| 20260509220002 | 13 | 155 | 3.2 | 4.8 | 0.00 | 0.36 | 0.36 | 79 | 1006.9 |
| 20260509215458 | 13 | 126 | 1.6 | 3.2 | 0.00 | 0.36 | 0.36 | 79 | 1006.8 |
| 20260509214955 | 13 | 153 | 3.2 | 4.8 | 0.00 | 0.36 | 0.36 | 78 | 1006.9 |
| 20260509214453 | 13 | 80 | 0.0 | 3.2 | 0.00 | 0.36 | 0.36 | 78 | 1006.9 |
| 20260509213949 | 13 | 153 | 4.8 | 11.3 | 0.00 | 0.36 | 0.36 | 77 | 1006.8 |
| 20260509213445 | 13 | 134 | 1.6 | 4.8 | 0.00 | 0.36 | 0.36 | 78 | 1006.8 |
| 20260509212943 | 13 | 188 | 3.2 | 4.8 | 0.00 | 0.36 | 0.36 | 78 | 1006.9 |
| 20260509212440 | 13 | 189 | 4.8 | 16.1 | 0.00 | 0.36 | 0.36 | 77 | 1006.7 |
| 20260509211936 | 13 | 197 | 4.8 | 16.1 | 0.00 | 0.36 | 0.36 | 77 | 1006.6 |
| 20260509211431 | 13 | 168 | 3.2 | 17.7 | 0.00 | 0.36 | 0.36 | 77 | 1006.9 |
| 20260509210928 | 13 | 148 | 11.3 | 11.3 | 0.00 | 0.36 | 0.36 | 76 | 1006.8 |
| 20260509210426 | 13 | 233 | 3.2 | 8.0 | 0.00 | 0.36 | 0.36 | 76 | 1006.9 |
| 20260509205921 | 14 | 137 | 8.0 | 16.1 | 0.00 | 0.36 | 0.36 | 76 | 1007.3 |
| 20260509205420 | 14 | 245 | 3.2 | 9.7 | 0.00 | 0.36 | 0.36 | 76 | 1007.0 |
| 20260509204917 | 14 | 181 | 4.8 | 12.9 | 0.00 | 0.36 | 0.36 | 76 | 1007.3 |
| 20260509204413 | 15 | 164 | 12.9 | 12.9 | 0.00 | 0.36 | 0.36 | 75 | 1007.1 |
| 20260509203910 | 14 | 182 | 3.2 | 9.7 | 0.00 | 0.36 | 0.36 | 75 | 1007.1 |
| 20260509203406 | 14 | 171 | 3.2 | 12.9 | 0.00 | 0.36 | 0.36 | 76 | 1007.4 |
| 20260509202903 | 14 | 194 | 1.6 | 11.3 | 0.00 | 0.36 | 0.36 | 76 | 1007.3 |
| 20260509202359 | 13 | 223 | 1.6 | 6.4 | 0.00 | 0.36 | 0.36 | 78 | 1007.2 |
| 20260509201854 | 13 | 89 | 6.4 | 16.1 | 0.00 | 0.36 | 0.36 | 78 | 1007.3 |
| 20260509201351 | 13 | 178 | 1.6 | 6.4 | 0.00 | 0.36 | 0.36 | 79 | 1007.4 |
| 20260509200848 | 13 | 259 | 1.6 | 9.7 | 0.00 | 0.36 | 0.36 | 79 | 1007.3 |
| 20260509200348 | 13 | 203 | 0.0 | 8.0 | 0.00 | 0.36 | 0.36 | 79 | 1007.0 |
| 20260509195845 | 13 | 136 | 0.0 | 11.3 | 0.00 | 0.36 | 0.36 | 79 | 1007.2 |
| 20260509195345 | 13 | 201 | 4.8 | 8.0 | 0.00 | 0.36 | 0.36 | 79 | 1007.5 |
| 20260509194845 | 13 | 301 | 1.6 | 6.4 | 0.00 | 0.36 | 0.36 | 80 | 1007.5 |
| 20260509194341 | 13 | 211 | 0.0 | 3.2 | 0.00 | 0.36 | 0.36 | 81 | 1007.5 |
| 20260509193838 | 13 | 170 | 4.8 | 9.7 | 0.00 | 0.36 | 0.36 | 81 | 1007.9 |
| 20260509193338 | 13 | 116 | 1.6 | 9.7 | 0.00 | 0.36 | 0.36 | 82 | 1007.6 |
| 20260509192834 | 12 | 114 | 4.8 | 6.4 | 0.00 | 0.36 | 0.36 | 84 | 1007.8 |
| 20260509192330 | 12 | 148 | 3.2 | 4.8 | 0.00 | 0.36 | 0.36 | 87 | 1007.7 |
| 20260509191825 | 12 | 27 | 0.0 | 3.2 | 0.00 | 0.36 | 0.36 | 88 | 1007.8 |
| 20260509191321 | 11 | 16 | 1.6 | 3.2 | 0.00 | 0.36 | 0.36 | 88 | 1008.0 |
| 20260509190817 | 11 | 35 | 3.2 | 4.8 | 0.00 | 0.36 | 0.36 | 87 | 1008.2 |
| 20260509190315 | 12 | 141 | 0.0 | 3.2 | 0.00 | 0.36 | 0.36 | 87 | 1008.2 |
| 20260509185812 | 12 | 6 | 0.0 | 1.6 | 0.00 | 0.36 | 0.36 | 89 | 1008.1 |
| 20260509185308 | 12 | 41 | 0.0 | 3.2 | 0.00 | 0.36 | 0.36 | 89 | 1008.1 |
| 20260509184806 | 11 | 37 | 3.2 | 4.8 | 0.00 | 0.36 | 0.36 | 89 | 1008.1 |
| 20260509184303 | 11 | 72 | 0.0 | 4.8 | 0.00 | 0.36 | 0.36 | 89 | 1008.2 |
| 20260509183759 | 11 | 135 | 0.0 | 3.2 | 0.00 | 0.36 | 0.36 | 89 | 1008.1 |
| 20260509183255 | 11 | 72 | 3.2 | 6.4 | 0.00 | 0.36 | 0.36 | 89 | 1008.3 |
| 20260509182750 | 11 | 146 | 0.0 | 4.8 | 0.00 | 0.36 | 0.36 | 88 | 1008.3 |
| 20260509182248 | 11 | 123 | 0.0 | 1.6 | 0.00 | 0.36 | 0.36 | 89 | 1008.0 |
| 20260509181745 | 11 | 68 | 0.0 | 3.2 | 0.00 | 0.36 | 0.36 | 89 | 1008.1 |
| 20260509181243 | 11 | 44 | 0.0 | 3.2 | 0.00 | 0.36 | 0.36 | 89 | 1008.3 |
| 20260509180739 | 11 | 177 | 0.0 | 3.2 | 0.00 | 0.36 | 0.36 | 88 | 1008.2 |
| 20260509180236 | 10 | 95 | 0.0 | 4.8 | 0.00 | 0.36 | 0.36 | 89 | 1008.2 |
| 20260509175732 | 10 | 199 | 1.6 | 6.4 | 0.00 | 0.36 | 0.36 | 89 | 1008.1 |
| 20260509175229 | 11 | 155 | 3.2 | 4.8 | 0.00 | 0.36 | 0.36 | 90 | 1008.3 |
| 20260509174725 | 10 | 177 | 4.8 | 6.4 | 0.00 | 0.36 | 0.36 | 90 | 1008.3 |
| 20260509174220 | 10 | 223 | 0.0 | 4.8 | 0.00 | 0.36 | 0.36 | 91 | 1008.2 |
| 20260509173717 | 10 | 112 | 0.0 | 6.4 | 0.00 | 0.36 | 0.36 | 91 | 1008.5 |
| 20260509173212 | 10 | 119 | 0.0 | 4.8 | 0.00 | 0.36 | 0.36 | 91 | 1008.3 |
| 20260509172708 | 10 | 157 | 3.2 | 3.2 | 0.00 | 0.36 | 0.36 | 92 | 1008.5 |
| 20260509172205 | 10 | 119 | 0.0 | 3.2 | 0.00 | 0.36 | 0.36 | 92 | 1008.6 |
| 20260509171700 | 10 | 113 | 3.2 | 3.2 | 0.00 | 0.36 | 0.36 | 92 | 1008.6 |
| 20260509171157 | 9 | 145 | 0.0 | 3.2 | 0.00 | 0.36 | 0.36 | 92 | 1008.9 |
| 20260509170654 | 9 | 174 | 3.2 | 3.2 | 0.00 | 0.36 | 0.36 | 92 | 1008.6 |
| 20260509170150 | 9 | 254 | 1.6 | 4.8 | 0.00 | 0.36 | 0.36 | 92 | 1008.9 |
| 20260509165648 | 9 | 201 | 0.0 | 4.8 | 0.00 | 0.36 | 0.36 | 92 | 1008.6 |
| 20260509165144 | 9 | 64 | 3.2 | 6.4 | 0.00 | 0.36 | 0.36 | 92 | 1008.7 |
| 20260509164640 | 9 | 156 | 3.2 | 8.0 | 0.00 | 0.36 | 0.36 | 92 | 1008.8 |
| 20260509164136 | 9 | 104 | 1.6 | 4.8 | 0.00 | 0.36 | 0.36 | 92 | 1008.9 |
| 20260509163634 | 9 | 54 | 1.6 | 9.7 | 0.00 | 0.36 | 0.36 | 92 | 1009.0 |
| 20260509163129 | 9 | 58 | 3.2 | 8.0 | 0.00 | 0.36 | 0.36 | 93 | 1009.1 |
| 20260509162627 | 10 | 201 | 0.0 | 3.2 | 0.00 | 0.36 | 0.36 | 93 | 1008.9 |
| 20260509162123 | 9 | 240 | 3.2 | 4.8 | 0.00 | 0.36 | 0.36 | 93 | 1009.0 |
| 20260509161619 | 9 | 216 | 3.2 | 4.8 | 0.00 | 0.36 | 0.36 | 93 | 1009.3 |
| 20260509161114 | 9 | 72 | 0.0 | 3.2 | 0.00 | 0.36 | 0.36 | 93 | 1009.1 |
| 20260509160610 | 9 | 234 | 3.2 | 4.8 | 0.00 | 0.36 | 0.36 | 93 | 1009.2 |
| 20260509160105 | 9 | 81 | 3.2 | 4.8 | 0.00 | 0.36 | 0.36 | 93 | 1009.3 |
| 20260509155602 | 8 | 82 | 3.2 | 4.8 | 0.05 | 0.36 | 0.36 | 93 | 1009.4 |
| 20260509155058 | 9 | 76 | 3.2 | 3.2 | 0.05 | 0.36 | 0.36 | 93 | 1009.6 |
| 20260509154554 | 9 | 82 | 0.0 | 4.8 | 0.05 | 0.36 | 0.36 | 93 | 1009.6 |
| 20260509154052 | 9 | 94 | 3.2 | 4.8 | 0.13 | 0.36 | 0.36 | 93 | 1009.5 |
| 20260509153549 | 9 | 125 | 4.8 | 4.8 | 0.18 | 0.33 | 0.33 | 93 | 1009.8 |
| 20260509153046 | 8 | 83 | 4.8 | 4.8 | 0.18 | 0.33 | 0.33 | 93 | 1009.7 |
| 20260509152541 | 8 | 143 | 4.8 | 11.3 | 0.05 | 0.30 | 0.30 | 93 | 1009.9 |
| 20260509152039 | 9 | 138 | 3.2 | 4.8 | 0.05 | 0.28 | 0.28 | 93 | 1010.0 |
| 20260509151529 | 8 | 103 | 0.0 | 11.3 | 0.13 | 0.28 | 0.28 | 93 | 1009.9 |
| 20260509151027 | 9 | 55 | 0.0 | 3.2 | 0.05 | 0.28 | 0.28 | 93 | 1010.0 |
| 20260509150524 | 8 | 108 | 4.8 | 8.0 | 0.05 | 0.28 | 0.28 | 93 | 1010.2 |
| 20260509150023 | 8 | 126 | 1.6 | 4.8 | 0.05 | 0.28 | 0.28 | 93 | 1010.0 |
| 20260509145519 | 8 | 215 | 0.0 | 4.8 | 0.05 | 0.25 | 0.25 | 93 | 1010.1 |
| 20260509145019 | 8 | 88 | 3.2 | 4.8 | 0.18 | 0.25 | 0.25 | 93 | 1009.9 |
| 20260509144516 | 8 | 54 | 0.0 | 6.4 | 0.13 | 0.25 | 0.25 | 93 | 1010.1 |
| 20260509144014 | 8 | 120 | 4.8 | 11.3 | 0.05 | 0.23 | 0.23 | 93 | 1010.1 |
| 20260509143510 | 8 | 112 | 1.6 | 4.8 | 0.13 | 0.23 | 0.23 | 93 | 1010.1 |
| 20260509143009 | 8 | 107 | 1.6 | 3.2 | 0.13 | 0.23 | 0.23 | 93 | 1009.9 |
| 20260509142503 | 8 | 223 | 3.2 | 8.0 | 0.13 | 0.20 | 0.20 | 93 | 1010.2 |
| 20260509141959 | 8 | 131 | 3.2 | 3.2 | 0.13 | 0.20 | 0.20 | 93 | 1010.1 |
| 20260509141456 | 8 | 124 | 3.2 | 4.8 | 0.13 | 0.18 | 0.18 | 93 | 1010.1 |
| 20260509140953 | 8 | 154 | 3.2 | 4.8 | 0.13 | 0.18 | 0.18 | 93 | 1010.1 |
| 20260509140449 | 8 | 88 | 0.0 | 6.4 | 0.13 | 0.18 | 0.18 | 93 | 1010.2 |
| 20260509135948 | 8 | 65 | 1.6 | 6.4 | 0.13 | 0.15 | 0.15 | 92 | 1010.2 |
| 20260509135444 | 8 | 121 | 1.6 | 3.2 | 0.13 | 0.15 | 0.15 | 92 | 1010.1 |
| 20260509134942 | 8 | 127 | 1.6 | 3.2 | 0.13 | 0.15 | 0.15 | 92 | 1010.3 |
| 20260509134439 | 8 | 125 | 3.2 | 4.8 | 0.13 | 0.13 | 0.13 | 92 | 1010.3 |
| 20260509133937 | 8 | 91 | 0.0 | 3.2 | 0.13 | 0.13 | 0.13 | 92 | 1010.2 |
| 20260509133433 | 7 | 76 | 1.6 | 4.8 | 0.18 | 0.10 | 0.10 | 92 | 1010.3 |
| 20260509132931 | 7 | 101 | 3.2 | 6.4 | 0.13 | 0.10 | 0.10 | 92 | 1010.2 |
| 20260509132429 | 7 | 95 | 0.0 | 4.8 | 0.00 | 0.08 | 0.08 | 91 | 1010.2 |
| 20260509131926 | 7 | 95 | 0.0 | 6.4 | 0.00 | 0.08 | 0.08 | 91 | 1010.2 |
| 20260509131423 | 7 | 103 | 0.0 | 4.8 | 0.05 | 0.08 | 0.08 | 91 | 1010.3 |
| 20260509130920 | 7 | 112 | 0.0 | 3.2 | 0.00 | 0.08 | 0.08 | 91 | 1010.3 |
| 20260509130414 | 7 | 137 | 3.2 | 3.2 | 0.00 | 0.08 | 0.08 | 91 | 1010.4 |
| 20260509125912 | 7 | 120 | 3.2 | 4.8 | 0.05 | 0.08 | 0.08 | 91 | 1010.4 |
| 20260509125409 | 7 | 102 | 0.0 | 3.2 | 0.05 | 0.08 | 0.08 | 90 | 1010.6 |
| 20260509124905 | 6 | 128 | 4.8 | 4.8 | 0.05 | 0.05 | 0.05 | 89 | 1010.4 |
| 20260509124402 | 6 | 130 | 3.2 | 3.2 | 0.13 | 0.05 | 0.05 | 89 | 1010.4 |
| 20260509123900 | 6 | 143 | 0.0 | 3.2 | 0.05 | 0.05 | 0.05 | 89 | 1010.3 |
| 20260509123357 | 6 | 95 | 0.0 | 6.4 | 0.05 | 0.05 | 0.05 | 88 | 1010.7 |
| 20260509122852 | 6 | 173 | 1.6 | 4.8 | 0.13 | 0.05 | 0.05 | 88 | 1010.8 |
| 20260509122349 | 6 | 99 | 1.6 | 4.8 | 0.05 | 0.03 | 0.03 | 88 | 1010.7 |
| 20260509121846 | 6 | 130 | 0.0 | 3.2 | 0.05 | 0.03 | 0.03 | 87 | 1010.7 |
| 20260509121343 | 6 | 43 | 0.0 | 3.2 | 0.05 | 0.03 | 0.03 | 87 | 1010.9 |
| 20260509120842 | 6 | 114 | 3.2 | 8.0 | 0.05 | 0.00 | 0.00 | 87 | 1010.9 |
| 20260509120339 | 6 | 160 | 0.0 | 6.4 | 0.05 | 0.00 | 0.00 | 87 | 1010.8 |
| 20260509115837 | 6 | 79 | 4.8 | 6.4 | 0.00 | 0.00 | 0.00 | 87 | 1010.8 |
| 20260509115334 | 6 | 111 | 3.2 | 4.8 | 0.00 | 0.00 | 0.00 | 86 | 1010.8 |
| 20260509114831 | 5 | 121 | 1.6 | 3.2 | 0.00 | 0.00 | 0.00 | 85 | 1010.7 |
| 20260509114330 | 5 | 170 | 3.2 | 4.8 | 0.00 | 0.00 | 0.00 | 85 | 1010.6 |
| 20260509113829 | 5 | 163 | 3.2 | 3.2 | 0.00 | 0.00 | 0.00 | 85 | 1010.8 |
| 20260509113325 | 5 | 143 | 1.6 | 3.2 | 0.00 | 0.00 | 0.00 | 85 | 1010.9 |
| 20260509112822 | 5 | 97 | 3.2 | 3.2 | 0.00 | 0.00 | 0.00 | 85 | 1010.9 |
| 20260509112319 | 5 | 38 | 0.0 | 1.6 | 0.00 | 0.00 | 0.00 | 85 | 1011.1 |
| 20260509111816 | 5 | 132 | 0.0 | 3.2 | 0.00 | 0.00 | 0.00 | 86 | 1010.8 |
| 20260509111313 | 5 | 174 | 1.6 | 3.2 | 0.00 | 0.00 | 0.00 | 86 | 1010.8 |
| 20260509110811 | 4 | 95 | 0.0 | 3.2 | 0.00 | 0.00 | 0.00 | 86 | 1011.0 |
| 20260509110307 | 4 | 186 | 0.0 | 3.2 | 0.00 | 0.00 | 0.00 | 86 | 1011.0 |
| 20260509105806 | 3 | 147 | 0.0 | 3.2 | 0.00 | 0.00 | 0.00 | 88 | 1010.8 |
| 20260509105306 | 3 | 146 | 1.6 | 3.2 | 0.00 | 0.00 | 0.00 | 89 | 1010.8 |
| 20260509104759 | 3 | 38 | 0.0 | 3.2 | 0.00 | 0.00 | 0.00 | 89 | 1010.9 |
| 20260509104256 | 3 | 104 | 3.2 | 3.2 | 0.00 | 0.00 | 0.00 | 89 | 1010.8 |
| 20260509103754 | 3 | 111 | 1.6 | 3.2 | 0.00 | 0.00 | 0.00 | 89 | 1010.8 |
| 20260509103251 | 3 | 267 | 1.6 | 4.8 | 0.00 | 0.00 | 0.00 | 90 | 1010.6 |
| 20260509102750 | 3 | 95 | 0.0 | 3.2 | 0.00 | 0.00 | 0.00 | 90 | 1010.6 |
| 20260509102246 | 2 | 95 | 3.2 | 4.8 | 0.00 | 0.00 | 0.00 | 90 | 1010.6 |
| 20260509101743 | 2 | 229 | 0.0 | 3.2 | 0.00 | 0.00 | 0.00 | 90 | 1010.7 |
| 20260509101239 | 2 | 162 | 1.6 | 3.2 | 0.00 | 0.00 | 0.00 | 90 | 1010.7 |
| 20260509100736 | 2 | 139 | 1.6 | 4.8 | 0.00 | 0.00 | 0.00 | 90 | 1010.6 |
| 20260509100234 | 2 | 181 | 3.2 | 6.4 | 0.00 | 0.00 | 0.00 | 90 | 1010.6 |
| 20260509095730 | 2 | 175 | 1.6 | 4.8 | 0.00 | 0.00 | 0.00 | 90 | 1010.4 |
| 20260509095227 | 2 | 184 | 1.6 | 3.2 | 0.00 | 0.00 | 0.00 | 89 | 1010.4 |
| 20260509094725 | 2 | 182 | 0.0 | 3.2 | 0.00 | 0.00 | 0.00 | 89 | 1010.5 |
| 20260509094221 | 2 | 142 | 3.2 | 4.8 | 0.00 | 0.00 | 0.00 | 89 | 1010.5 |
| 20260509093719 | 2 | 17 | 0.0 | 0.0 | 0.00 | 0.00 | 0.00 | 89 | 1010.5 |
| 20260509093216 | 2 | 7 | 0.0 | 3.2 | 0.00 | 0.00 | 0.00 | 89 | 1010.7 |
| 20260509092714 | 2 | 152 | 1.6 | 3.2 | 0.00 | 0.00 | 0.00 | 89 | 1010.7 |
| 20260509092212 | 2 | 170 | 1.6 | 3.2 | 0.00 | 0.00 | 0.00 | 89 | 1010.6 |
| 20260509091710 | 2 | 110 | 1.6 | 3.2 | 0.00 | 0.00 | 0.00 | 89 | 1010.7 |
| 20260509091205 | 2 | 99 | 3.2 | 4.8 | 0.00 | 0.00 | 0.00 | 89 | 1011.0 |
| 20260509090704 | 2 | 106 | 3.2 | 4.8 | 0.00 | 0.00 | 0.00 | 89 | 1010.7 |
| 20260509090201 | 2 | 115 | 0.0 | 4.8 | 0.00 | 0.00 | 0.00 | 89 | 1011.0 |
| 20260509085658 | 2 | 182 | 0.0 | 4.8 | 0.00 | 0.00 | 0.00 | 89 | 1010.9 |
| 20260509085155 | 2 | 140 | 1.6 | 4.8 | 0.00 | 0.00 | 0.00 | 89 | 1010.9 |
| 20260509084652 | 2 | 162 | 3.2 | 3.2 | 0.00 | 0.00 | 0.00 | 89 | 1011.0 |
| 20260509084148 | 2 | 172 | 0.0 | 1.6 | 0.00 | 0.00 | 0.00 | 89 | 1010.9 |
| 20260509083646 | 2 | 102 | 1.6 | 4.8 | 0.00 | 0.00 | 0.00 | 89 | 1011.2 |
| 20260509083142 | 2 | 89 | 3.2 | 4.8 | 0.00 | 0.00 | 0.00 | 89 | 1011.1 |
| 20260509082640 | 2 | 186 | 0.0 | 3.2 | 0.00 | 0.00 | 0.00 | 89 | 1011.1 |
| 20260509082136 | 2 | 147 | 0.0 | 4.8 | 0.00 | 0.00 | 0.00 | 89 | 1011.1 |
| 20260509081633 | 2 | 123 | 3.2 | 4.8 | 0.00 | 0.00 | 0.00 | 89 | 1011.3 |
| 20260509081131 | 2 | 162 | 3.2 | 4.8 | 0.00 | 0.00 | 0.00 | 89 | 1011.0 |
| 20260509080629 | 2 | 149 | 1.6 | 4.8 | 0.00 | 0.00 | 0.00 | 89 | 1011.0 |
| 20260509080126 | 2 | 150 | 0.0 | 4.8 | 0.00 | 0.00 | 0.00 | 89 | 1011.3 |
| 20260509075624 | 1 | 166 | 3.2 | 4.8 | 0.00 | 0.00 | 0.00 | 89 | 1011.2 |
| 20260509075122 | 1 | 133 | 1.6 | 3.2 | 0.00 | 0.00 | 0.00 | 89 | 1011.1 |
| 20260509074618 | 1 | 174 | 0.0 | 3.2 | 0.00 | 0.00 | 0.00 | 89 | 1010.9 |
| 20260509074115 | 1 | 127 | 3.2 | 4.8 | 0.00 | 0.00 | 0.00 | 88 | 1011.1 |
| 20260509073612 | 1 | 164 | 0.0 | 4.8 | 0.00 | 0.00 | 0.00 | 88 | 1011.0 |
| 20260509073108 | 1 | 163 | 3.2 | 4.8 | 0.00 | 0.00 | 0.00 | 88 | 1011.1 |
| 20260509072605 | 1 | 164 | 1.6 | 4.8 | 0.00 | 0.00 | 0.00 | 88 | 1011.3 |
| 20260509072101 | 1 | 146 | 3.2 | 3.2 | 0.00 | 0.00 | 0.00 | 88 | 1011.3 |